sensor_id;sensor_type;location;lat;lon;timestamp;temperature;humidity
12720;DHT22;6424;48.520;11.228;2024-02-23T00:00:53;8.70;99.90
12720;DHT22;6424;48.520;11.228;2024-02-23T00:03:38;8.60;99.90
12720;DHT22;6424;48.520;11.228;2024-02-23T00:06:23;8.60;99.90
12720;DHT22;6424;48.520;11.228;2024-02-23T00:09:11;8.60;99.90
12720;DHT22;6424;48.520;11.228;2024-02-23T00:11:55;8.60;99.90
12720;DHT22;6424;48.520;11.228;2024-02-23T00:14:40;8.60;99.90
12720;DHT22;6424;48.520;11.228;2024-02-23T00:17:25;8.50;99.90
12720;DHT22;6424;48.520;11.228;2024-02-23T00:20:09;8.50;99.90
12720;DHT22;6424;48.520;11.228;2024-02-23T00:22:58;8.50;99.90
12720;DHT22;6424;48.520;11.228;2024-02-23T00:25:42;8.40;99.90
12720;DHT22;6424;48.520;11.228;2024-02-23T00:28:26;8.40;99.90
12720;DHT22;6424;48.520;11.228;2024-02-23T00:31:10;8.40;99.90
12720;DHT22;6424;48.520;11.228;2024-02-23T00:33:55;8.30;99.90
12720;DHT22;6424;48.520;11.228;2024-02-23T00:36:40;8.30;99.90
12720;DHT22;6424;48.520;11.228;2024-02-23T00:39:25;8.20;99.90
12720;DHT22;6424;48.520;11.228;2024-02-23T00:42:09;8.20;99.90
12720;DHT22;6424;48.520;11.228;2024-02-23T00:44:53;8.20;99.90
12720;DHT22;6424;48.520;11.228;2024-02-23T00:47:37;8.10;99.90
12720;DHT22;6424;48.520;11.228;2024-02-23T00:50:22;8.10;99.90
12720;DHT22;6424;48.520;11.228;2024-02-23T00:53:07;8.00;99.90
12720;DHT22;6424;48.520;11.228;2024-02-23T00:55:51;7.90;99.90
12720;DHT22;6424;48.520;11.228;2024-02-23T00:58:35;7.80;99.90
12720;DHT22;6424;48.520;11.228;2024-02-23T01:01:20;7.70;99.90
12720;DHT22;6424;48.520;11.228;2024-02-23T01:04:04;7.70;99.90
12720;DHT22;6424;48.520;11.228;2024-02-23T01:06:48;7.70;99.90
12720;DHT22;6424;48.520;11.228;2024-02-23T01:09:32;7.60;99.90
12720;DHT22;6424;48.520;11.228;2024-02-23T01:12:16;7.60;99.90
12720;DHT22;6424;48.520;11.228;2024-02-23T01:15:00;7.60;99.90
12720;DHT22;6424;48.520;11.228;2024-02-23T01:17:45;7.50;99.90
12720;DHT22;6424;48.520;11.228;2024-02-23T01:20:29;7.50;99.90
12720;DHT22;6424;48.520;11.228;2024-02-23T01:23:14;7.40;99.90
12720;DHT22;6424;48.520;11.228;2024-02-23T01:25:58;7.40;99.90
12720;DHT22;6424;48.520;11.228;2024-02-23T01:28:44;7.40;99.90
12720;DHT22;6424;48.520;11.228;2024-02-23T01:31:29;7.40;99.90
12720;DHT22;6424;48.520;11.228;2024-02-23T01:34:13;7.40;99.90
12720;DHT22;6424;48.520;11.228;2024-02-23T01:36:57;7.40;99.90
12720;DHT22;6424;48.520;11.228;2024-02-23T01:39:41;7.40;99.90
12720;DHT22;6424;48.520;11.228;2024-02-23T01:42:25;7.40;99.90
12720;DHT22;6424;48.520;11.228;2024-02-23T01:45:13;7.30;99.90
12720;DHT22;6424;48.520;11.228;2024-02-23T01:47:58;7.20;99.90
12720;DHT22;6424;48.520;11.228;2024-02-23T01:50:43;7.00;99.90
12720;DHT22;6424;48.520;11.228;2024-02-23T01:53:28;6.70;99.90
12720;DHT22;6424;48.520;11.228;2024-02-23T01:56:14;6.30;99.90
12720;DHT22;6424;48.520;11.228;2024-02-23T01:59:02;5.90;99.90
12720;DHT22;6424;48.520;11.228;2024-02-23T02:01:48;5.60;99.90
12720;DHT22;6424;48.520;11.228;2024-02-23T02:04:32;5.50;99.90
12720;DHT22;6424;48.520;11.228;2024-02-23T02:07:16;5.30;99.90
12720;DHT22;6424;48.520;11.228;2024-02-23T02:10:02;5.10;99.90
12720;DHT22;6424;48.520;11.228;2024-02-23T02:12:48;5.00;99.90
12720;DHT22;6424;48.520;11.228;2024-02-23T02:15:32;4.90;99.90
12720;DHT22;6424;48.520;11.228;2024-02-23T02:18:17;4.80;99.90
12720;DHT22;6424;48.520;11.228;2024-02-23T02:21:04;4.80;99.90
12720;DHT22;6424;48.520;11.228;2024-02-23T02:23:48;4.70;99.90
12720;DHT22;6424;48.520;11.228;2024-02-23T02:26:32;4.70;99.90
12720;DHT22;6424;48.520;11.228;2024-02-23T02:29:16;4.60;99.90
12720;DHT22;6424;48.520;11.228;2024-02-23T02:32:01;4.60;99.90
12720;DHT22;6424;48.520;11.228;2024-02-23T02:34:46;4.60;99.90
12720;DHT22;6424;48.520;11.228;2024-02-23T02:37:30;4.60;99.90
12720;DHT22;6424;48.520;11.228;2024-02-23T02:40:14;4.60;99.90
12720;DHT22;6424;48.520;11.228;2024-02-23T02:42:58;4.60;99.90
12720;DHT22;6424;48.520;11.228;2024-02-23T02:45:43;4.70;99.90
12720;DHT22;6424;48.520;11.228;2024-02-23T02:48:28;4.70;99.90
12720;DHT22;6424;48.520;11.228;2024-02-23T02:51:12;4.70;99.90
12720;DHT22;6424;48.520;11.228;2024-02-23T02:53:56;4.70;99.90
12720;DHT22;6424;48.520;11.228;2024-02-23T02:56:44;4.70;99.90
12720;DHT22;6424;48.520;11.228;2024-02-23T02:59:34;4.70;99.90
12720;DHT22;6424;48.520;11.228;2024-02-23T03:02:19;4.70;99.90
12720;DHT22;6424;48.520;11.228;2024-02-23T03:05:03;4.70;99.90
12720;DHT22;6424;48.520;11.228;2024-02-23T03:07:48;4.70;99.90
12720;DHT22;6424;48.520;11.228;2024-02-23T03:10:32;4.80;99.90
12720;DHT22;6424;48.520;11.228;2024-02-23T03:13:17;4.70;99.90
12720;DHT22;6424;48.520;11.228;2024-02-23T03:16:02;4.70;99.90
12720;DHT22;6424;48.520;11.228;2024-02-23T03:18:46;4.70;99.90
12720;DHT22;6424;48.520;11.228;2024-02-23T03:21:31;4.80;99.90
12720;DHT22;6424;48.520;11.228;2024-02-23T03:24:15;4.80;99.90
12720;DHT22;6424;48.520;11.228;2024-02-23T03:26:59;4.80;99.90
12720;DHT22;6424;48.520;11.228;2024-02-23T03:29:44;4.80;99.90
12720;DHT22;6424;48.520;11.228;2024-02-23T03:32:29;4.80;99.90
12720;DHT22;6424;48.520;11.228;2024-02-23T03:35:15;4.80;99.90
12720;DHT22;6424;48.520;11.228;2024-02-23T03:37:59;4.70;99.90
12720;DHT22;6424;48.520;11.228;2024-02-23T03:40:43;4.80;99.90
12720;DHT22;6424;48.520;11.228;2024-02-23T03:43:28;4.70;99.90
12720;DHT22;6424;48.520;11.228;2024-02-23T03:46:13;4.70;99.90
12720;DHT22;6424;48.520;11.228;2024-02-23T03:48:59;4.80;99.90
12720;DHT22;6424;48.520;11.228;2024-02-23T03:51:43;4.70;99.90
12720;DHT22;6424;48.520;11.228;2024-02-23T03:54:27;4.80;99.90
12720;DHT22;6424;48.520;11.228;2024-02-23T03:57:11;4.70;99.90
12720;DHT22;6424;48.520;11.228;2024-02-23T03:59:56;4.70;99.90
12720;DHT22;6424;48.520;11.228;2024-02-23T04:02:41;4.70;99.90
12720;DHT22;6424;48.520;11.228;2024-02-23T04:05:25;4.70;99.90
12720;DHT22;6424;48.520;11.228;2024-02-23T04:08:10;4.70;99.90
12720;DHT22;6424;48.520;11.228;2024-02-23T04:10:54;4.70;99.90
12720;DHT22;6424;48.520;11.228;2024-02-23T04:13:38;4.70;99.90
12720;DHT22;6424;48.520;11.228;2024-02-23T04:16:23;4.70;99.90
12720;DHT22;6424;48.520;11.228;2024-02-23T04:19:09;4.60;99.90
12720;DHT22;6424;48.520;11.228;2024-02-23T04:21:53;4.60;99.90
12720;DHT22;6424;48.520;11.228;2024-02-23T04:24:41;4.60;99.90
12720;DHT22;6424;48.520;11.228;2024-02-23T04:27:26;4.60;99.90
12720;DHT22;6424;48.520;11.228;2024-02-23T04:30:11;4.60;99.90
12720;DHT22;6424;48.520;11.228;2024-02-23T04:32:55;4.60;99.90
12720;DHT22;6424;48.520;11.228;2024-02-23T04:35:39;4.60;99.90
12720;DHT22;6424;48.520;11.228;2024-02-23T04:38:23;4.60;99.90
12720;DHT22;6424;48.520;11.228;2024-02-23T04:41:07;4.60;99.90
12720;DHT22;6424;48.520;11.228;2024-02-23T04:43:51;4.50;99.90
12720;DHT22;6424;48.520;11.228;2024-02-23T04:46:37;4.50;99.90
12720;DHT22;6424;48.520;11.228;2024-02-23T04:49:21;4.50;99.90
12720;DHT22;6424;48.520;11.228;2024-02-23T04:52:08;4.50;99.90
12720;DHT22;6424;48.520;11.228;2024-02-23T04:54:52;4.50;99.90
12720;DHT22;6424;48.520;11.228;2024-02-23T04:57:37;4.50;99.90
12720;DHT22;6424;48.520;11.228;2024-02-23T05:00:22;4.50;99.90
12720;DHT22;6424;48.520;11.228;2024-02-23T05:03:07;4.50;99.90
12720;DHT22;6424;48.520;11.228;2024-02-23T05:05:51;4.50;99.90
12720;DHT22;6424;48.520;11.228;2024-02-23T05:08:37;4.50;99.90
12720;DHT22;6424;48.520;11.228;2024-02-23T05:11:21;4.50;99.90
12720;DHT22;6424;48.520;11.228;2024-02-23T05:14:05;4.50;99.90
12720;DHT22;6424;48.520;11.228;2024-02-23T05:16:49;4.50;99.90
12720;DHT22;6424;48.520;11.228;2024-02-23T05:19:34;4.50;99.90
12720;DHT22;6424;48.520;11.228;2024-02-23T05:22:18;4.50;99.90
12720;DHT22;6424;48.520;11.228;2024-02-23T05:25:03;4.50;99.90
12720;DHT22;6424;48.520;11.228;2024-02-23T05:27:49;4.50;99.90
12720;DHT22;6424;48.520;11.228;2024-02-23T05:30:33;4.50;99.90
12720;DHT22;6424;48.520;11.228;2024-02-23T05:33:17;4.50;99.90
12720;DHT22;6424;48.520;11.228;2024-02-23T05:36:05;4.50;99.90
12720;DHT22;6424;48.520;11.228;2024-02-23T05:38:50;4.50;99.90
12720;DHT22;6424;48.520;11.228;2024-02-23T05:41:34;4.50;99.90
12720;DHT22;6424;48.520;11.228;2024-02-23T05:44:19;4.50;99.90
12720;DHT22;6424;48.520;11.228;2024-02-23T05:47:03;4.50;99.90
12720;DHT22;6424;48.520;11.228;2024-02-23T05:49:50;4.50;99.90
12720;DHT22;6424;48.520;11.228;2024-02-23T05:52:35;4.50;99.90
12720;DHT22;6424;48.520;11.228;2024-02-23T05:55:20;4.50;99.90
12720;DHT22;6424;48.520;11.228;2024-02-23T05:58:04;4.50;99.90
12720;DHT22;6424;48.520;11.228;2024-02-23T06:00:49;4.50;99.90
12720;DHT22;6424;48.520;11.228;2024-02-23T06:03:35;4.50;99.90
12720;DHT22;6424;48.520;11.228;2024-02-23T06:06:19;4.50;99.90
12720;DHT22;6424;48.520;11.228;2024-02-23T06:09:04;4.50;99.90
12720;DHT22;6424;48.520;11.228;2024-02-23T06:11:50;4.50;99.90
12720;DHT22;6424;48.520;11.228;2024-02-23T06:14:34;4.50;99.90
12720;DHT22;6424;48.520;11.228;2024-02-23T06:17:18;4.50;99.90
12720;DHT22;6424;48.520;11.228;2024-02-23T06:20:03;4.50;99.90
12720;DHT22;6424;48.520;11.228;2024-02-23T06:22:48;4.50;99.90
12720;DHT22;6424;48.520;11.228;2024-02-23T06:25:32;4.50;99.90
12720;DHT22;6424;48.520;11.228;2024-02-23T06:28:17;4.50;99.90
12720;DHT22;6424;48.520;11.228;2024-02-23T06:31:02;4.50;99.90
12720;DHT22;6424;48.520;11.228;2024-02-23T06:33:47;4.50;99.90
12720;DHT22;6424;48.520;11.228;2024-02-23T06:36:33;4.50;99.90
12720;DHT22;6424;48.520;11.228;2024-02-23T06:39:18;4.60;99.90
12720;DHT22;6424;48.520;11.228;2024-02-23T06:42:02;4.50;99.90
12720;DHT22;6424;48.520;11.228;2024-02-23T06:44:49;4.60;99.90
12720;DHT22;6424;48.520;11.228;2024-02-23T06:47:33;4.60;99.90
12720;DHT22;6424;48.520;11.228;2024-02-23T06:50:18;4.60;99.90
12720;DHT22;6424;48.520;11.228;2024-02-23T06:53:02;4.60;99.90
12720;DHT22;6424;48.520;11.228;2024-02-23T06:55:47;4.60;99.90
12720;DHT22;6424;48.520;11.228;2024-02-23T06:58:31;4.50;99.90
12720;DHT22;6424;48.520;11.228;2024-02-23T07:01:16;4.50;99.90
12720;DHT22;6424;48.520;11.228;2024-02-23T07:04:00;4.60;99.90
12720;DHT22;6424;48.520;11.228;2024-02-23T07:06:45;4.60;99.90
12720;DHT22;6424;48.520;11.228;2024-02-23T07:09:30;4.60;99.90
12720;DHT22;6424;48.520;11.228;2024-02-23T07:12:14;4.60;99.90
12720;DHT22;6424;48.520;11.228;2024-02-23T07:14:59;4.60;99.90
12720;DHT22;6424;48.520;11.228;2024-02-23T07:17:45;4.60;99.90
12720;DHT22;6424;48.520;11.228;2024-02-23T07:20:29;4.60;99.90
12720;DHT22;6424;48.520;11.228;2024-02-23T07:23:14;4.60;99.90
12720;DHT22;6424;48.520;11.228;2024-02-23T07:26:00;4.70;99.90
12720;DHT22;6424;48.520;11.228;2024-02-23T07:28:44;4.70;99.90
12720;DHT22;6424;48.520;11.228;2024-02-23T07:31:28;4.70;99.90
12720;DHT22;6424;48.520;11.228;2024-02-23T07:34:12;4.70;99.90
12720;DHT22;6424;48.520;11.228;2024-02-23T07:36:57;4.80;99.90
12720;DHT22;6424;48.520;11.228;2024-02-23T07:39:41;4.80;99.90
12720;DHT22;6424;48.520;11.228;2024-02-23T07:42:25;4.80;99.90
12720;DHT22;6424;48.520;11.228;2024-02-23T07:45:11;4.80;99.90
12720;DHT22;6424;48.520;11.228;2024-02-23T07:47:55;4.80;99.90
12720;DHT22;6424;48.520;11.228;2024-02-23T07:50:40;4.80;99.90
12720;DHT22;6424;48.520;11.228;2024-02-23T07:53:24;4.80;99.90
12720;DHT22;6424;48.520;11.228;2024-02-23T07:56:08;4.90;99.90
12720;DHT22;6424;48.520;11.228;2024-02-23T07:58:54;4.90;99.90
12720;DHT22;6424;48.520;11.228;2024-02-23T08:01:38;4.90;99.90
12720;DHT22;6424;48.520;11.228;2024-02-23T08:04:24;5.00;99.90
12720;DHT22;6424;48.520;11.228;2024-02-23T08:07:09;5.00;99.90
12720;DHT22;6424;48.520;11.228;2024-02-23T08:09:54;5.00;99.90
12720;DHT22;6424;48.520;11.228;2024-02-23T08:12:38;5.00;99.90
12720;DHT22;6424;48.520;11.228;2024-02-23T08:15:24;5.10;99.90
12720;DHT22;6424;48.520;11.228;2024-02-23T08:18:08;5.10;99.90
12720;DHT22;6424;48.520;11.228;2024-02-23T08:20:52;5.20;99.90
12720;DHT22;6424;48.520;11.228;2024-02-23T08:23:37;5.20;99.90
12720;DHT22;6424;48.520;11.228;2024-02-23T08:26:21;5.30;99.90
12720;DHT22;6424;48.520;11.228;2024-02-23T08:29:06;5.30;99.90
12720;DHT22;6424;48.520;11.228;2024-02-23T08:31:51;5.30;99.90
12720;DHT22;6424;48.520;11.228;2024-02-23T08:34:35;5.40;99.90
12720;DHT22;6424;48.520;11.228;2024-02-23T08:37:20;5.40;99.90
12720;DHT22;6424;48.520;11.228;2024-02-23T08:40:04;5.50;99.90
12720;DHT22;6424;48.520;11.228;2024-02-23T08:42:50;5.50;99.90
12720;DHT22;6424;48.520;11.228;2024-02-23T08:45:35;5.50;99.90
12720;DHT22;6424;48.520;11.228;2024-02-23T08:48:20;5.50;99.90
12720;DHT22;6424;48.520;11.228;2024-02-23T08:51:05;5.50;99.90
12720;DHT22;6424;48.520;11.228;2024-02-23T08:53:49;5.60;99.90
12720;DHT22;6424;48.520;11.228;2024-02-23T08:56:37;5.60;99.90
12720;DHT22;6424;48.520;11.228;2024-02-23T08:59:23;5.60;99.90
12720;DHT22;6424;48.520;11.228;2024-02-23T09:02:07;5.60;99.90
12720;DHT22;6424;48.520;11.228;2024-02-23T09:04:52;5.60;99.90
12720;DHT22;6424;48.520;11.228;2024-02-23T09:07:36;5.60;99.90
12720;DHT22;6424;48.520;11.228;2024-02-23T09:10:21;5.60;99.90
12720;DHT22;6424;48.520;11.228;2024-02-23T09:13:05;5.60;99.90
12720;DHT22;6424;48.520;11.228;2024-02-23T09:15:50;5.50;99.90
12720;DHT22;6424;48.520;11.228;2024-02-23T09:18:35;5.60;99.90
12720;DHT22;6424;48.520;11.228;2024-02-23T09:21:20;5.60;99.90
12720;DHT22;6424;48.520;11.228;2024-02-23T09:24:05;5.60;99.90
12720;DHT22;6424;48.520;11.228;2024-02-23T09:26:50;5.60;99.90
12720;DHT22;6424;48.520;11.228;2024-02-23T09:29:34;5.60;99.90
12720;DHT22;6424;48.520;11.228;2024-02-23T09:32:19;5.60;99.90
12720;DHT22;6424;48.520;11.228;2024-02-23T09:35:03;5.60;99.90
12720;DHT22;6424;48.520;11.228;2024-02-23T09:37:48;5.60;99.90
12720;DHT22;6424;48.520;11.228;2024-02-23T09:40:32;5.60;99.90
12720;DHT22;6424;48.520;11.228;2024-02-23T09:43:17;5.50;99.90
12720;DHT22;6424;48.520;11.228;2024-02-23T09:46:04;5.50;99.90
12720;DHT22;6424;48.520;11.228;2024-02-23T09:48:48;5.50;99.90
12720;DHT22;6424;48.520;11.228;2024-02-23T09:51:34;5.50;99.90
12720;DHT22;6424;48.520;11.228;2024-02-23T09:54:21;5.50;99.90
12720;DHT22;6424;48.520;11.228;2024-02-23T09:57:09;5.60;99.90
12720;DHT22;6424;48.520;11.228;2024-02-23T09:59:54;5.60;99.90
12720;DHT22;6424;48.520;11.228;2024-02-23T10:02:40;5.60;99.90
12720;DHT22;6424;48.520;11.228;2024-02-23T10:05:29;5.60;99.90
12720;DHT22;6424;48.520;11.228;2024-02-23T10:08:14;5.60;99.90
12720;DHT22;6424;48.520;11.228;2024-02-23T10:11:00;5.60;99.90
12720;DHT22;6424;48.520;11.228;2024-02-23T10:13:50;5.70;99.90
12720;DHT22;6424;48.520;11.228;2024-02-23T10:16:36;5.70;99.90
12720;DHT22;6424;48.520;11.228;2024-02-23T10:19:23;5.70;99.90
12720;DHT22;6424;48.520;11.228;2024-02-23T10:22:12;5.80;99.90
12720;DHT22;6424;48.520;11.228;2024-02-23T10:24:57;5.80;99.90
12720;DHT22;6424;48.520;11.228;2024-02-23T10:27:41;5.80;99.90
12720;DHT22;6424;48.520;11.228;2024-02-23T10:30:29;5.80;99.90
12720;DHT22;6424;48.520;11.228;2024-02-23T10:33:14;5.90;99.90
12720;DHT22;6424;48.520;11.228;2024-02-23T10:36:00;5.80;99.90
12720;DHT22;6424;48.520;11.228;2024-02-23T10:38:46;5.90;99.90
12720;DHT22;6424;48.520;11.228;2024-02-23T10:41:35;5.90;99.90
12720;DHT22;6424;48.520;11.228;2024-02-23T10:44:21;5.90;99.90
12720;DHT22;6424;48.520;11.228;2024-02-23T10:47:07;6.00;99.90
12720;DHT22;6424;48.520;11.228;2024-02-23T10:49:51;6.00;99.90
12720;DHT22;6424;48.520;11.228;2024-02-23T10:52:37;6.00;99.90
12720;DHT22;6424;48.520;11.228;2024-02-23T10:55:23;6.10;99.90
12720;DHT22;6424;48.520;11.228;2024-02-23T10:58:09;6.00;99.90
12720;DHT22;6424;48.520;11.228;2024-02-23T11:01:00;6.00;99.90
12720;DHT22;6424;48.520;11.228;2024-02-23T11:03:46;6.00;99.90
12720;DHT22;6424;48.520;11.228;2024-02-23T11:06:34;6.00;99.90
12720;DHT22;6424;48.520;11.228;2024-02-23T11:09:22;6.10;99.90
12720;DHT22;6424;48.520;11.228;2024-02-23T11:12:07;6.10;99.90
12720;DHT22;6424;48.520;11.228;2024-02-23T11:14:51;6.10;99.90
12720;DHT22;6424;48.520;11.228;2024-02-23T11:17:40;6.10;99.90
12720;DHT22;6424;48.520;11.228;2024-02-23T11:20:34;6.10;99.90
12720;DHT22;6424;48.520;11.228;2024-02-23T11:23:18;6.10;99.90
12720;DHT22;6424;48.520;11.228;2024-02-23T11:28:51;6.10;99.90
12720;DHT22;6424;48.520;11.228;2024-02-23T11:31:44;6.00;99.90
12720;DHT22;6424;48.520;11.228;2024-02-23T11:34:30;6.10;99.90
12720;DHT22;6424;48.520;11.228;2024-02-23T11:37:18;6.10;99.90
12720;DHT22;6424;48.520;11.228;2024-02-23T11:40:03;6.10;99.90
12720;DHT22;6424;48.520;11.228;2024-02-23T11:42:49;6.20;99.90
12720;DHT22;6424;48.520;11.228;2024-02-23T11:45:34;6.20;99.90
12720;DHT22;6424;48.520;11.228;2024-02-23T11:48:19;6.30;99.90
12720;DHT22;6424;48.520;11.228;2024-02-23T11:51:03;6.40;99.90
12720;DHT22;6424;48.520;11.228;2024-02-23T11:53:48;6.40;99.90
12720;DHT22;6424;48.520;11.228;2024-02-23T11:56:33;6.40;99.90
12720;DHT22;6424;48.520;11.228;2024-02-23T11:59:21;6.50;99.90
12720;DHT22;6424;48.520;11.228;2024-02-23T12:02:06;6.50;99.90
12720;DHT22;6424;48.520;11.228;2024-02-23T12:04:51;6.60;99.90
12720;DHT22;6424;48.520;11.228;2024-02-23T12:07:36;6.60;99.90
12720;DHT22;6424;48.520;11.228;2024-02-23T12:10:20;6.60;99.90
12720;DHT22;6424;48.520;11.228;2024-02-23T12:13:05;6.60;99.90
12720;DHT22;6424;48.520;11.228;2024-02-23T12:15:53;6.60;99.90
12720;DHT22;6424;48.520;11.228;2024-02-23T12:18:37;6.60;99.90
12720;DHT22;6424;48.520;11.228;2024-02-23T12:21:23;6.60;99.90
12720;DHT22;6424;48.520;11.228;2024-02-23T12:24:08;6.60;99.90
12720;DHT22;6424;48.520;11.228;2024-02-23T12:26:54;6.60;99.90
12720;DHT22;6424;48.520;11.228;2024-02-23T12:29:39;6.60;99.90
12720;DHT22;6424;48.520;11.228;2024-02-23T12:32:23;6.60;99.90
12720;DHT22;6424;48.520;11.228;2024-02-23T12:35:10;6.60;99.90
12720;DHT22;6424;48.520;11.228;2024-02-23T12:37:54;6.70;99.90
12720;DHT22;6424;48.520;11.228;2024-02-23T12:40:38;6.70;99.90
12720;DHT22;6424;48.520;11.228;2024-02-23T12:43:22;6.70;99.90
12720;DHT22;6424;48.520;11.228;2024-02-23T12:46:10;6.70;99.90
12720;DHT22;6424;48.520;11.228;2024-02-23T12:48:58;6.60;99.90
12720;DHT22;6424;48.520;11.228;2024-02-23T12:51:42;6.60;99.90
12720;DHT22;6424;48.520;11.228;2024-02-23T12:54:27;6.60;99.90
12720;DHT22;6424;48.520;11.228;2024-02-23T12:57:11;6.60;99.90
12720;DHT22;6424;48.520;11.228;2024-02-23T12:59:55;6.60;99.90
12720;DHT22;6424;48.520;11.228;2024-02-23T13:02:39;6.60;99.90
12720;DHT22;6424;48.520;11.228;2024-02-23T13:05:24;6.60;99.90
12720;DHT22;6424;48.520;11.228;2024-02-23T13:08:08;6.60;99.90
12720;DHT22;6424;48.520;11.228;2024-02-23T13:10:53;6.60;99.90
12720;DHT22;6424;48.520;11.228;2024-02-23T13:13:38;6.60;99.90
12720;DHT22;6424;48.520;11.228;2024-02-23T13:16:22;6.60;99.90
12720;DHT22;6424;48.520;11.228;2024-02-23T13:19:07;6.60;99.90
12720;DHT22;6424;48.520;11.228;2024-02-23T13:21:53;6.60;99.90
12720;DHT22;6424;48.520;11.228;2024-02-23T13:24:37;6.60;99.90
12720;DHT22;6424;48.520;11.228;2024-02-23T13:27:24;6.60;99.90
12720;DHT22;6424;48.520;11.228;2024-02-23T13:30:08;6.70;99.90
12720;DHT22;6424;48.520;11.228;2024-02-23T13:32:53;6.80;99.90
12720;DHT22;6424;48.520;11.228;2024-02-23T13:35:38;6.90;99.90
12720;DHT22;6424;48.520;11.228;2024-02-23T13:38:23;6.90;99.90
12720;DHT22;6424;48.520;11.228;2024-02-23T13:41:08;6.90;99.90
12720;DHT22;6424;48.520;11.228;2024-02-23T13:43:53;6.80;99.90
12720;DHT22;6424;48.520;11.228;2024-02-23T13:46:40;6.70;99.90
12720;DHT22;6424;48.520;11.228;2024-02-23T13:49:24;6.60;99.90
12720;DHT22;6424;48.520;11.228;2024-02-23T13:52:10;6.50;99.90
12720;DHT22;6424;48.520;11.228;2024-02-23T13:54:54;6.50;99.90
12720;DHT22;6424;48.520;11.228;2024-02-23T13:57:39;6.50;99.90
12720;DHT22;6424;48.520;11.228;2024-02-23T14:00:23;6.50;99.90
12720;DHT22;6424;48.520;11.228;2024-02-23T14:03:08;6.40;99.90
12720;DHT22;6424;48.520;11.228;2024-02-23T14:05:54;6.40;99.90
12720;DHT22;6424;48.520;11.228;2024-02-23T14:08:38;6.30;99.90
12720;DHT22;6424;48.520;11.228;2024-02-23T14:11:23;6.30;99.90
12720;DHT22;6424;48.520;11.228;2024-02-23T14:14:08;6.30;99.90
12720;DHT22;6424;48.520;11.228;2024-02-23T14:16:52;6.30;99.90
12720;DHT22;6424;48.520;11.228;2024-02-23T14:19:37;6.20;99.90
12720;DHT22;6424;48.520;11.228;2024-02-23T14:22:21;6.10;99.90
12720;DHT22;6424;48.520;11.228;2024-02-23T14:25:06;6.10;99.90
12720;DHT22;6424;48.520;11.228;2024-02-23T14:27:51;6.10;99.90
12720;DHT22;6424;48.520;11.228;2024-02-23T14:30:35;6.00;99.90
12720;DHT22;6424;48.520;11.228;2024-02-23T14:33:19;6.00;99.90
12720;DHT22;6424;48.520;11.228;2024-02-23T14:36:04;6.00;99.90
12720;DHT22;6424;48.520;11.228;2024-02-23T14:38:49;6.00;99.90
12720;DHT22;6424;48.520;11.228;2024-02-23T14:41:33;6.00;99.90
12720;DHT22;6424;48.520;11.228;2024-02-23T14:44:17;5.90;99.90
12720;DHT22;6424;48.520;11.228;2024-02-23T14:47:03;5.90;99.90
12720;DHT22;6424;48.520;11.228;2024-02-23T14:49:47;5.80;99.90
12720;DHT22;6424;48.520;11.228;2024-02-23T14:52:31;5.80;99.90
12720;DHT22;6424;48.520;11.228;2024-02-23T14:55:16;5.80;99.90
12720;DHT22;6424;48.520;11.228;2024-02-23T14:58:00;5.80;99.90
12720;DHT22;6424;48.520;11.228;2024-02-23T15:00:44;5.80;99.90
12720;DHT22;6424;48.520;11.228;2024-02-23T15:03:28;5.80;99.90
12720;DHT22;6424;48.520;11.228;2024-02-23T15:06:13;5.80;99.90
12720;DHT22;6424;48.520;11.228;2024-02-23T15:08:57;5.80;99.90
12720;DHT22;6424;48.520;11.228;2024-02-23T15:11:41;5.70;99.90
12720;DHT22;6424;48.520;11.228;2024-02-23T15:14:26;5.70;99.90
12720;DHT22;6424;48.520;11.228;2024-02-23T15:17:10;5.60;99.90
12720;DHT22;6424;48.520;11.228;2024-02-23T15:19:54;5.50;99.90
12720;DHT22;6424;48.520;11.228;2024-02-23T15:22:39;5.50;99.90
12720;DHT22;6424;48.520;11.228;2024-02-23T15:25:27;5.50;99.90
12720;DHT22;6424;48.520;11.228;2024-02-23T15:28:11;5.40;99.90
12720;DHT22;6424;48.520;11.228;2024-02-23T15:30:56;5.40;99.90
12720;DHT22;6424;48.520;11.228;2024-02-23T15:33:40;5.40;99.90
12720;DHT22;6424;48.520;11.228;2024-02-23T15:36:24;5.40;99.90
12720;DHT22;6424;48.520;11.228;2024-02-23T15:39:08;5.40;99.90
12720;DHT22;6424;48.520;11.228;2024-02-23T15:41:53;5.30;99.90
12720;DHT22;6424;48.520;11.228;2024-02-23T15:44:38;5.30;99.90
12720;DHT22;6424;48.520;11.228;2024-02-23T15:47:22;5.30;99.90
12720;DHT22;6424;48.520;11.228;2024-02-23T15:50:07;5.20;99.90
12720;DHT22;6424;48.520;11.228;2024-02-23T15:52:52;5.20;99.90
12720;DHT22;6424;48.520;11.228;2024-02-23T15:55:36;5.10;99.90
12720;DHT22;6424;48.520;11.228;2024-02-23T15:58:21;5.10;99.90
12720;DHT22;6424;48.520;11.228;2024-02-23T16:01:05;5.10;99.90
12720;DHT22;6424;48.520;11.228;2024-02-23T16:03:49;5.10;99.90
12720;DHT22;6424;48.520;11.228;2024-02-23T16:06:34;5.10;99.90
12720;DHT22;6424;48.520;11.228;2024-02-23T16:09:19;5.10;99.90
12720;DHT22;6424;48.520;11.228;2024-02-23T16:12:04;5.00;99.90
12720;DHT22;6424;48.520;11.228;2024-02-23T16:14:48;5.00;99.90
12720;DHT22;6424;48.520;11.228;2024-02-23T16:17:37;5.00;99.90
12720;DHT22;6424;48.520;11.228;2024-02-23T16:20:21;5.00;99.90
12720;DHT22;6424;48.520;11.228;2024-02-23T16:23:06;4.90;99.90
12720;DHT22;6424;48.520;11.228;2024-02-23T16:25:51;4.90;99.90
12720;DHT22;6424;48.520;11.228;2024-02-23T16:28:35;4.90;99.90
12720;DHT22;6424;48.520;11.228;2024-02-23T16:31:20;4.90;99.90
12720;DHT22;6424;48.520;11.228;2024-02-23T16:34:04;4.80;99.90
12720;DHT22;6424;48.520;11.228;2024-02-23T16:36:48;4.80;99.90
12720;DHT22;6424;48.520;11.228;2024-02-23T16:39:32;4.70;99.90
12720;DHT22;6424;48.520;11.228;2024-02-23T16:42:17;4.70;99.90
12720;DHT22;6424;48.520;11.228;2024-02-23T16:45:01;4.70;99.90
12720;DHT22;6424;48.520;11.228;2024-02-23T16:47:46;4.60;99.90
12720;DHT22;6424;48.520;11.228;2024-02-23T16:50:30;4.60;99.90
12720;DHT22;6424;48.520;11.228;2024-02-23T16:53:15;4.70;99.90
12720;DHT22;6424;48.520;11.228;2024-02-23T16:55:59;4.60;99.90
12720;DHT22;6424;48.520;11.228;2024-02-23T16:58:46;4.60;99.90
12720;DHT22;6424;48.520;11.228;2024-02-23T17:01:31;4.60;99.90
12720;DHT22;6424;48.520;11.228;2024-02-23T17:04:15;4.50;99.90
12720;DHT22;6424;48.520;11.228;2024-02-23T17:07:00;4.50;99.90
12720;DHT22;6424;48.520;11.228;2024-02-23T17:09:45;4.50;99.90
12720;DHT22;6424;48.520;11.228;2024-02-23T17:12:31;4.50;99.90
12720;DHT22;6424;48.520;11.228;2024-02-23T17:15:16;4.50;99.90
12720;DHT22;6424;48.520;11.228;2024-02-23T17:18:00;4.40;99.90
12720;DHT22;6424;48.520;11.228;2024-02-23T17:20:45;4.40;99.90
12720;DHT22;6424;48.520;11.228;2024-02-23T17:23:30;4.30;99.90
12720;DHT22;6424;48.520;11.228;2024-02-23T17:26:15;4.40;99.90
12720;DHT22;6424;48.520;11.228;2024-02-23T17:28:59;4.30;99.90
12720;DHT22;6424;48.520;11.228;2024-02-23T17:31:43;4.30;99.90
12720;DHT22;6424;48.520;11.228;2024-02-23T17:34:29;4.30;99.90
12720;DHT22;6424;48.520;11.228;2024-02-23T17:37:13;4.20;99.90
12720;DHT22;6424;48.520;11.228;2024-02-23T17:39:58;4.20;99.90